Time;durP1;ratioP1;P1;durP2;ratioP2;P2;SDS_P1;SDS_P2;PMS_P1;PMS_P2;Temp;Humidity;BMP_temperature;BMP_pressure;BME280_temperature;BME280_humidity;BME280_pressure;Samples;Min_cycle;Max_cycle;Signal;HPM_P1;HPM_P2
2021/12/10 00:00:27;;;;;;;15.95;13.98;;;2.70;99.90;;;;;;5080779;28;20020;-65
2021/12/10 00:02:54;;;;;;;15.38;13.45;;;2.70;99.90;;;;;;5086815;28;20460;-65
2021/12/10 00:05:36;;;;;;;13.82;12.38;;;2.70;99.90;;;;;;5092588;28;20461;-65
2021/12/10 00:08:03;;;;;;;13.68;11.88;;;2.70;99.90;;;;;;5092379;28;20035;-64
2021/12/10 00:10:37;;;;;;;13.23;11.88;;;2.70;99.90;;;;;;5092975;28;20024;-67
2021/12/10 00:13:04;;;;;;;13.55;12.25;;;2.70;99.90;;;;;;5092190;28;20038;-64
2021/12/10 00:15:32;;;;;;;12.98;10.98;;;2.70;99.90;;;;;;5080123;28;20381;-65
2021/12/10 00:18:01;;;;;;;12.82;11.15;;;2.70;99.90;;;;;;5071588;28;20062;-64
2021/12/10 00:20:29;;;;;;;12.15;10.85;;;2.60;99.90;;;;;;5071008;28;20391;-65
2021/12/10 00:22:59;;;;;;;12.38;10.85;;;2.70;99.90;;;;;;5072384;28;20028;-65
2021/12/10 00:25:35;;;;;;;12.02;10.82;;;2.70;99.90;;;;;;5072592;28;20093;-65
2021/12/10 00:28:13;;;;;;;10.88;9.77;;;2.70;99.90;;;;;;5071892;28;20016;-64
2021/12/10 00:30:55;;;;;;;11.10;9.90;;;2.70;99.90;;;;;;5072253;28;20031;-66
2021/12/10 00:33:24;;;;;;;;;;;2.70;99.90;;;;;;5072092;28;20025;-66
2021/12/10 00:35:51;;;;;;;13.02;10.00;;;2.60;99.90;;;;;;5072285;28;19901;-66
2021/12/10 00:38:17;;;;;;;10.65;9.50;;;2.60;99.90;;;;;;5071594;28;20696;-64
2021/12/10 00:40:44;;;;;;;11.80;10.35;;;2.60;99.90;;;;;;5071939;28;20020;-65
2021/12/10 00:43:10;;;;;;;10.95;9.80;;;2.60;99.90;;;;;;5071605;28;20397;-65
2021/12/10 00:45:36;;;;;;;11.77;9.27;;;2.60;99.90;;;;;;5071901;28;20127;-65
2021/12/10 00:48:02;;;;;;;11.27;10.05;;;2.60;99.90;;;;;;5071094;28;20048;-64
2021/12/10 00:50:35;;;;;;;10.90;9.80;;;2.60;99.90;;;;;;5072257;28;20318;-65
2021/12/10 00:53:01;;;;;;;10.52;9.45;;;2.60;99.90;;;;;;5071640;28;20048;-64
2021/12/10 00:55:27;;;;;;;10.80;9.60;;;2.60;99.90;;;;;;5072012;28;20102;-65
2021/12/10 00:57:54;;;;;;;11.00;9.90;;;2.60;99.90;;;;;;5072046;28;20031;-65
2021/12/10 01:00:32;;;;;;;11.18;10.07;;;2.60;99.90;;;;;;5071420;28;20012;-65
2021/12/10 01:02:58;;;;;;;10.27;9.20;;;2.60;99.90;;;;;;5085663;28;20099;-66
2021/12/10 01:05:25;;;;;;;9.77;8.77;;;2.60;99.90;;;;;;5091722;28;20107;-66
2021/12/10 01:07:51;;;;;;;10.65;9.60;;;2.60;99.90;;;;;;5091839;28;20023;-65
2021/12/10 01:10:24;;;;;;;10.43;9.32;;;2.60;99.90;;;;;;5091509;28;20020;-65
2021/12/10 01:12:54;;;;;;;10.15;9.05;;;2.60;99.90;;;;;;5094896;28;20164;-65
2021/12/10 01:24:08;;;;;;;9.82;8.82;;;2.60;99.90;;;;;;5096247;28;20017;-65
2021/12/10 01:29:19;;;;;;;9.38;8.48;;;2.60;99.90;;;;;;5095485;28;20016;-66
2021/12/10 01:31:46;;;;;;;10.13;9.10;;;2.60;99.90;;;;;;5095955;28;20479;-66
2021/12/10 01:34:12;;;;;;;9.27;8.38;;;2.60;99.90;;;;;;5095009;28;20527;-65
2021/12/10 01:36:39;;;;;;;9.02;8.13;;;2.60;99.90;;;;;;5094679;28;20077;-66
2021/12/10 01:39:09;;;;;;;9.90;8.90;;;2.60;99.90;;;;;;5095494;28;20047;-65
2021/12/10 01:41:39;;;;;;;9.88;8.88;;;2.60;99.90;;;;;;5095745;28;20051;-65
2021/12/10 01:44:15;;;;;;;9.48;8.57;;;2.60;99.90;;;;;;5094953;28;20031;-64
2021/12/10 01:46:45;;;;;;;9.57;8.65;;;2.60;99.90;;;;;;5095715;28;20067;-65
2021/12/10 01:49:12;;;;;;;9.07;8.18;;;2.60;99.90;;;;;;5095009;28;20020;-64
2021/12/10 01:51:40;;;;;;;9.45;8.45;;;2.60;99.90;;;;;;5095282;28;20442;-65
2021/12/10 01:54:12;;;;;;;10.10;9.07;;;2.60;99.90;;;;;;5094855;28;20036;-64
2021/12/10 01:56:40;;;;;;;9.07;8.18;;;2.60;99.90;;;;;;5095580;28;20064;-64
2021/12/10 01:59:09;;;;;;;9.05;7.95;;;2.60;99.90;;;;;;5094914;28;20047;-64
2021/12/10 02:01:41;;;;;;;8.48;7.68;;;2.60;99.90;;;;;;5095331;28;20032;-65
2021/12/10 02:04:09;;;;;;;8.50;7.38;;;2.60;99.90;;;;;;5094902;28;20028;-64
2021/12/10 02:06:35;;;;;;;9.10;8.10;;;2.60;99.90;;;;;;5095096;28;20028;-66
2021/12/10 02:09:01;;;;;;;8.60;7.80;;;2.60;99.90;;;;;;5095094;28;20013;-66
2021/12/10 02:11:27;;;;;;;8.90;8.00;;;2.60;99.90;;;;;;5091247;28;20104;-66
2021/12/10 02:13:52;;;;;;;8.98;8.07;;;2.60;99.90;;;;;;5095153;28;20095;-67
2021/12/10 02:16:18;;;;;;;8.73;7.80;;;2.60;99.90;;;;;;5094569;28;20359;-65
2021/12/10 02:18:44;;;;;;;10.23;8.90;;;2.60;99.90;;;;;;5094760;28;20020;-65
2021/12/10 02:21:10;;;;;;;9.60;8.63;;;2.60;99.90;;;;;;5094432;28;20035;-66
2021/12/10 02:23:42;;;;;;;8.88;7.97;;;2.60;99.90;;;;;;5093902;28;20128;-66
2021/12/10 02:26:11;;;;;;;9.75;8.75;;;2.70;99.90;;;;;;5093261;28;20056;-65
2021/12/10 02:28:38;;;;;;;8.70;7.78;;;2.70;99.90;;;;;;5094645;28;20027;-66
2021/12/10 02:31:05;;;;;;;9.48;8.13;;;2.70;99.90;;;;;;5094879;28;20135;-66
2021/12/10 02:33:30;;;;;;;8.38;7.57;;;2.70;99.90;;;;;;5094230;28;20024;-66
2021/12/10 02:35:56;;;;;;;8.32;7.53;;;2.70;99.90;;;;;;5094795;28;20069;-66
2021/12/10 02:38:23;;;;;;;7.82;7.03;;;2.70;99.90;;;;;;5094063;28;20048;-66
2021/12/10 02:40:51;;;;;;;9.82;7.65;;;2.70;99.90;;;;;;5088837;28;20031;-67
2021/12/10 02:43:18;;;;;;;10.05;7.97;;;2.70;99.90;;;;;;5084568;28;20076;-66
2021/12/10 02:45:47;;;;;;;11.20;8.25;;;2.70;99.90;;;;;;5080594;28;20029;-66
2021/12/10 02:48:13;;;;;;;9.90;7.82;;;2.70;99.90;;;;;;5084120;28;20025;-66
2021/12/10 02:50:39;;;;;;;9.50;7.88;;;2.80;99.90;;;;;;5085330;28;20176;-67
2021/12/10 02:53:07;;;;;;;9.75;8.75;;;2.80;99.90;;;;;;5083535;28;20021;-66
2021/12/10 02:55:34;;;;;;;9.00;8.07;;;2.80;99.90;;;;;;5083556;28;20023;-67
2021/12/10 02:58:05;;;;;;;8.52;7.60;;;2.80;99.90;;;;;;5082624;28;20433;-67
2021/12/10 03:00:35;;;;;;;10.20;9.13;;;2.80;99.90;;;;;;5082755;28;20385;-65
2021/12/10 03:03:02;;;;;;;9.60;8.10;;;2.80;99.90;;;;;;5090725;28;20031;-66
2021/12/10 03:05:28;;;;;;;11.90;8.50;;;2.80;99.90;;;;;;5093037;28;20086;-66
2021/12/10 03:07:54;;;;;;;10.35;8.13;;;2.90;99.90;;;;;;5094071;28;20103;-66
2021/12/10 03:10:26;;;;;;;9.98;8.32;;;2.90;99.90;;;;;;5093182;28;20016;-64
2021/12/10 03:12:53;;;;;;;7.82;7.00;;;2.90;99.90;;;;;;5093811;28;20034;-66
2021/12/10 03:15:21;;;;;;;9.40;7.78;;;2.90;99.90;;;;;;5093555;28;20028;-65
2021/12/10 03:17:47;;;;;;;10.85;8.18;;;2.90;99.90;;;;;;5093572;28;20027;-67
2021/12/10 03:20:17;;;;;;;12.05;7.28;;;2.90;99.90;;;;;;5092814;28;20020;-65
2021/12/10 03:22:43;;;;;;;9.15;7.55;;;2.90;99.90;;;;;;5093217;28;20482;-65
2021/12/10 03:25:11;;;;;;;9.02;7.80;;;2.90;99.90;;;;;;5093937;28;20028;-66
2021/12/10 03:27:38;;;;;;;7.97;6.90;;;2.90;99.90;;;;;;5093595;28;20050;-66
2021/12/10 03:30:09;;;;;;;9.07;7.20;;;2.90;99.90;;;;;;5093558;28;20020;-66
2021/12/10 03:32:36;;;;;;;11.43;6.95;;;2.90;99.90;;;;;;5092906;28;20019;-65
2021/12/10 03:35:09;;;;;;;8.68;6.72;;;2.90;99.90;;;;;;5093162;28;20357;-66
2021/12/10 03:37:35;;;;;;;8.63;7.05;;;2.90;99.90;;;;;;5082376;28;20085;-66
2021/12/10 03:40:04;;;;;;;10.93;7.20;;;2.90;99.90;;;;;;5082629;28;20103;-67
2021/12/10 03:42:30;;;;;;;7.95;6.40;;;2.90;99.90;;;;;;5092520;28;20373;-66
2021/12/10 03:44:56;;;;;;;11.48;7.68;;;2.90;99.90;;;;;;5093261;28;20020;-66
2021/12/10 03:47:21;;;;;;;9.98;7.47;;;2.90;99.90;;;;;;5092667;28;20423;-65
2021/12/10 03:49:47;;;;;;;12.13;8.45;;;2.90;99.90;;;;;;5093192;28;20424;-66
2021/12/10 03:52:13;;;;;;;10.10;7.35;;;2.90;99.90;;;;;;5092519;28;20032;-65
2021/12/10 03:54:41;;;;;;;12.13;7.28;;;2.90;99.90;;;;;;5091400;28;20028;-65
2021/12/10 03:57:07;;;;;;;11.60;6.80;;;2.90;99.90;;;;;;5093018;28;20047;-67
2021/12/10 03:59:36;;;;;;;9.35;6.53;;;2.90;99.90;;;;;;5092541;28;20271;-66
2021/12/10 04:02:05;;;;;;;10.25;7.00;;;2.90;99.90;;;;;;5089366;28;20036;-66
2021/12/10 04:04:34;;;;;;;10.55;6.68;;;2.90;99.90;;;;;;5092045;28;20019;-66
2021/12/10 04:07:06;;;;;;;18.63;7.25;;;2.90;99.90;;;;;;5092570;28;20452;-66
2021/12/10 04:09:32;;;;;;;9.45;6.10;;;2.90;99.90;;;;;;5089877;28;20410;-68
2021/12/10 04:11:58;;;;;;;9.20;6.70;;;2.80;99.90;;;;;;5092598;28;20028;-68
2021/12/10 04:14:24;;;;;;;8.55;6.68;;;2.80;99.90;;;;;;5091742;28;20531;-66
2021/12/10 04:16:55;;;;;;;8.15;6.18;;;2.80;99.90;;;;;;5092532;28;20031;-63
2021/12/10 04:19:22;;;;;;;9.77;6.70;;;2.90;99.90;;;;;;5092183;28;20043;-62
2021/12/10 04:21:48;;;;;;;8.90;6.55;;;2.80;99.90;;;;;;5085732;28;20032;-63
2021/12/10 04:24:18;;;;;;;10.07;6.43;;;2.80;99.90;;;;;;5080425;28;20016;-63
2021/12/10 04:26:46;;;;;;;11.57;6.63;;;2.80;99.90;;;;;;5071906;28;20375;-63
2021/12/10 04:29:12;;;;;;;8.90;6.50;;;2.80;99.90;;;;;;5072235;28;20136;-63
2021/12/10 04:31:38;;;;;;;11.63;7.20;;;2.80;99.90;;;;;;5071674;28;20063;-63
2021/12/10 04:36:51;;;;;;;8.52;6.30;;;2.80;99.90;;;;;;5072076;28;20023;-62
2021/12/10 04:39:17;;;;;;;7.50;6.55;;;2.80;99.90;;;;;;5071797;28;20028;-63
2021/12/10 04:41:43;;;;;;;9.88;6.85;;;2.80;99.90;;;;;;5072113;28;20350;-63
2021/12/10 04:44:09;;;;;;;10.45;7.20;;;2.80;99.90;;;;;;5072189;28;20017;-62
2021/12/10 04:46:35;;;;;;;12.10;7.47;;;2.70;99.90;;;;;;5070700;28;20048;-61
2021/12/10 04:49:05;;;;;;;9.35;7.82;;;2.70;99.90;;;;;;5072024;28;20031;-61
2021/12/10 04:51:38;;;;;;;8.45;7.53;;;2.70;99.90;;;;;;5071437;28;20028;-61
2021/12/10 04:54:05;;;;;;;10.13;7.82;;;2.70;99.90;;;;;;5071993;28;20023;-62
2021/12/10 04:56:32;;;;;;;14.18;8.50;;;2.60;99.90;;;;;;5071308;28;20438;-62
2021/12/10 04:59:00;;;;;;;10.85;7.70;;;2.60;99.90;;;;;;5071888;28;20104;-61
2021/12/10 05:01:27;;;;;;;11.20;7.05;;;2.50;99.90;;;;;;5071219;28;20128;-61
2021/12/10 05:03:53;;;;;;;12.68;7.93;;;2.50;99.90;;;;;;5071926;28;20035;-62
2021/12/10 05:06:19;;;;;;;9.88;7.50;;;2.40;99.90;;;;;;5083939;28;20091;-61
2021/12/10 05:08:45;;;;;;;11.18;7.93;;;2.30;99.90;;;;;;5090823;28;20023;-61
2021/12/10 05:11:11;;;;;;;11.27;7.45;;;2.30;99.90;;;;;;5092050;28;20095;-60
2021/12/10 05:13:39;;;;;;;10.40;7.88;;;2.30;99.90;;;;;;5091296;28;20085;-62
2021/12/10 05:16:06;;;;;;;10.30;7.25;;;2.20;99.90;;;;;;5092040;28;20020;-61
2021/12/10 05:18:37;;;;;;;9.15;7.82;;;2.10;99.90;;;;;;5091370;28;20019;-60
2021/12/10 05:21:07;;;;;;;11.95;7.40;;;2.10;99.90;;;;;;5087300;28;20440;-62
2021/12/10 05:23:33;;;;;;;10.77;8.30;;;2.10;99.90;;;;;;5073959;28;20016;-63
2021/12/10 05:25:58;;;;;;;11.70;7.75;;;2.00;99.90;;;;;;5071756;28;20250;-62
2021/12/10 05:28:43;;;;;;;10.20;7.80;;;2.00;99.90;;;;;;5070961;28;20119;-61
2021/12/10 05:31:09;;;;;;;11.95;8.13;;;1.90;99.90;;;;;;5087980;28;20073;-61
2021/12/10 05:33:35;;;;;;;12.15;8.13;;;1.90;99.90;;;;;;5091102;28;20120;-62
2021/12/10 05:36:02;;;;;;;17.33;8.93;;;1.90;99.90;;;;;;5091625;28;20036;-61
2021/12/10 05:38:28;;;;;;;12.93;7.78;;;1.90;99.90;;;;;;5090819;28;20372;-63
2021/12/10 05:40:55;;;;;;;12.70;7.65;;;1.80;99.90;;;;;;5091767;28;20020;-62
2021/12/10 05:43:22;;;;;;;10.63;8.35;;;1.80;99.90;;;;;;5091817;28;20024;-62
2021/12/10 05:45:49;;;;;;;12.75;7.88;;;1.80;99.90;;;;;;5091159;28;20099;-62
2021/12/10 05:48:15;;;;;;;14.20;8.27;;;1.80;99.90;;;;;;5091563;28;20050;-62
2021/12/10 05:50:41;;;;;;;11.23;7.57;;;1.80;99.90;;;;;;5080596;28;20271;-62
2021/12/10 05:53:07;;;;;;;12.38;7.85;;;1.80;99.90;;;;;;5071132;28;20021;-62
2021/12/10 05:55:34;;;;;;;11.98;7.90;;;1.80;99.90;;;;;;5071206;28;20047;-62
2021/12/10 05:57:59;;;;;;;12.07;8.00;;;1.80;99.90;;;;;;5072577;28;20028;-62
2021/12/10 06:00:33;;;;;;;15.20;8.40;;;1.80;99.90;;;;;;5092603;28;20305;-61
2021/12/10 06:02:59;;;;;;;11.30;7.97;;;1.80;99.90;;;;;;5095144;28;20544;-62
2021/12/10 06:05:27;;;;;;;12.55;8.18;;;1.80;99.90;;;;;;5094920;28;20020;-61
2021/12/10 06:07:53;;;;;;;13.43;8.23;;;1.80;99.90;;;;;;5094090;28;20023;-61
2021/12/10 06:10:21;;;;;;;11.95;8.32;;;1.70;99.90;;;;;;5093427;28;20020;-62
2021/12/10 06:12:48;;;;;;;13.25;8.43;;;1.70;99.90;;;;;;5092753;28;20023;-63
2021/12/10 06:15:16;;;;;;;15.50;8.75;;;1.70;99.90;;;;;;5092749;28;20047;-61
2021/12/10 06:17:42;;;;;;;11.38;7.97;;;1.70;99.90;;;;;;5093017;28;20349;-62
2021/12/10 06:20:10;;;;;;;14.85;8.35;;;1.70;99.90;;;;;;5093390;28;20208;-61
2021/12/10 06:22:36;;;;;;;13.38;8.57;;;1.70;99.90;;;;;;5092740;28;20102;-62
2021/12/10 06:25:04;;;;;;;13.13;7.88;;;1.70;99.90;;;;;;5093152;28;20476;-62
2021/12/10 06:27:30;;;;;;;12.32;7.60;;;1.70;99.90;;;;;;5093730;28;20044;-62
2021/12/10 06:29:57;;;;;;;11.57;7.47;;;1.70;99.90;;;;;;5095105;28;20419;-61
2021/12/10 06:32:23;;;;;;;12.15;7.53;;;1.70;99.90;;;;;;5094306;28;20028;-62
2021/12/10 06:34:49;;;;;;;11.68;7.03;;;1.70;99.90;;;;;;5094015;28;20020;-61
2021/12/10 06:37:14;;;;;;;11.38;7.10;;;1.70;99.90;;;;;;5094281;28;20024;-62
2021/12/10 06:39:40;;;;;;;12.27;6.85;;;1.70;99.90;;;;;;5094076;28;20437;-62
2021/12/10 06:42:06;;;;;;;11.77;6.95;;;1.70;99.90;;;;;;5094479;28;20437;-62
2021/12/10 06:44:32;;;;;;;12.18;6.80;;;1.70;99.90;;;;;;5093941;28;20024;-62
2021/12/10 06:46:57;;;;;;;13.68;6.68;;;1.70;99.90;;;;;;5094555;28;20071;-61
2021/12/10 06:49:23;;;;;;;8.95;6.63;;;1.70;99.90;;;;;;5094103;28;20479;-61
2021/12/10 06:51:49;;;;;;;10.52;6.57;;;1.70;99.90;;;;;;5092293;28;20035;-61
2021/12/10 06:54:15;;;;;;;11.45;6.43;;;1.60;99.90;;;;;;5094781;28;20020;-61
2021/12/10 06:56:41;;;;;;;14.50;6.97;;;1.70;99.90;;;;;;5093688;28;20449;-61
2021/12/10 06:59:09;;;;;;;11.27;6.78;;;1.60;99.90;;;;;;5087876;28;20020;-62
2021/12/10 07:01:40;;;;;;;12.98;6.97;;;1.60;99.90;;;;;;5072022;28;20048;-61
2021/12/10 07:04:11;;;;;;;13.20;7.38;;;1.60;99.90;;;;;;5073938;28;20028;-61
2021/12/10 07:06:39;;;;;;;10.55;6.85;;;1.60;99.90;;;;;;5073368;28;20021;-61
2021/12/10 07:09:10;;;;;;;10.85;6.82;;;1.50;99.90;;;;;;5073694;28;20028;-61
2021/12/10 07:11:37;;;;;;;;;;;1.50;99.90;;;;;;5073476;28;20105;-61
2021/12/10 07:14:02;;;;;;;9.82;6.22;;;1.50;99.90;;;;;;5073749;28;19904;-61
2021/12/10 07:16:30;;;;;;;10.60;6.55;;;1.60;99.90;;;;;;5072704;28;20055;-63
2021/12/10 07:18:57;;;;;;;11.93;5.97;;;1.60;99.90;;;;;;5073655;28;20020;-62
2021/12/10 07:21:24;;;;;;;7.55;5.57;;;1.60;99.90;;;;;;5073548;28;20032;-62
2021/12/10 07:23:49;;;;;;;10.65;6.35;;;1.60;99.90;;;;;;5072813;28;20433;-62
2021/12/10 07:26:16;;;;;;;10.80;6.45;;;1.60;99.90;;;;;;5073655;28;20031;-62
2021/12/10 07:28:42;;;;;;;11.88;6.07;;;1.60;99.90;;;;;;5072791;28;20032;-62
2021/12/10 07:31:08;;;;;;;12.52;6.93;;;1.60;99.90;;;;;;5073424;28;20020;-62
2021/12/10 07:33:34;;;;;;;9.85;6.80;;;1.60;99.90;;;;;;5071597;28;20441;-61
2021/12/10 07:36:01;;;;;;;10.43;6.82;;;1.60;99.90;;;;;;5073199;28;20108;-62
2021/12/10 07:38:26;;;;;;;12.40;7.03;;;1.70;99.90;;;;;;5072973;28;20025;-61
2021/12/10 07:40:53;;;;;;;12.60;6.60;;;1.70;99.90;;;;;;5072373;28;20125;-62
2021/12/10 07:43:20;;;;;;;12.27;6.40;;;1.70;99.90;;;;;;5072941;28;20024;-61
2021/12/10 07:45:48;;;;;;;15.55;9.23;;;1.70;99.90;;;;;;5071898;28;20108;-62
2021/12/10 07:48:18;;;;;;;12.85;7.20;;;1.70;99.90;;;;;;5073044;28;20036;-61
2021/12/10 07:50:55;;;;;;;10.18;6.43;;;1.70;99.90;;;;;;5072258;28;20090;-62
2021/12/10 07:53:22;;;;;;;13.10;7.20;;;1.80;99.90;;;;;;5072614;28;20347;-61
2021/12/10 07:55:48;;;;;;;11.98;7.00;;;1.80;99.90;;;;;;5072293;28;20507;-60
2021/12/10 07:58:15;;;;;;;11.57;7.40;;;1.80;99.90;;;;;;5072782;28;20029;-61
2021/12/10 08:00:43;;;;;;;12.52;7.70;;;1.80;99.90;;;;;;5072106;28;20456;-61
2021/12/10 08:03:09;;;;;;;9.98;5.82;;;1.80;99.90;;;;;;5072401;28;20038;-62
2021/12/10 08:05:37;;;;;;;14.85;6.38;;;1.90;99.90;;;;;;5089848;28;20024;-62
2021/12/10 08:08:05;;;;;;;9.00;5.00;;;1.90;99.90;;;;;;5092979;28;20356;-62
2021/12/10 08:10:31;;;;;;;8.85;4.57;;;1.90;99.90;;;;;;5092820;28;20286;-62
2021/12/10 08:12:57;;;;;;;7.05;4.60;;;1.90;99.90;;;;;;5092321;28;20431;-62
2021/12/10 08:15:23;;;;;;;6.93;4.47;;;2.00;99.90;;;;;;5092793;28;20106;-61
2021/12/10 08:17:49;;;;;;;6.28;4.07;;;2.00;99.90;;;;;;5092342;28;20016;-61
2021/12/10 08:20:19;;;;;;;6.03;4.05;;;2.10;99.90;;;;;;5092685;28;20016;-62
2021/12/10 08:22:46;;;;;;;7.55;4.82;;;2.10;99.90;;;;;;5091295;28;20371;-61
2021/12/10 08:25:12;;;;;;;10.35;5.50;;;2.20;99.90;;;;;;5092726;28;20038;-61
2021/12/10 08:27:38;;;;;;;8.43;5.65;;;2.20;99.90;;;;;;5091956;28;20024;-62
2021/12/10 08:30:10;;;;;;;8.35;5.60;;;2.20;99.90;;;;;;5092474;28;20024;-61
2021/12/10 08:32:36;;;;;;;9.27;5.85;;;2.20;99.90;;;;;;5090479;28;20364;-61
2021/12/10 08:35:04;;;;;;;12.32;7.00;;;2.20;99.90;;;;;;5092377;28;20111;-61
2021/12/10 08:37:30;;;;;;;13.23;6.93;;;2.20;99.90;;;;;;5092186;28;20403;-61
2021/12/10 08:39:56;;;;;;;10.23;6.60;;;2.20;99.90;;;;;;5091676;28;20041;-61
2021/12/10 08:42:22;;;;;;;10.13;6.93;;;2.20;99.90;;;;;;5092222;28;20476;-61
2021/12/10 08:44:47;;;;;;;12.63;8.00;;;2.20;99.90;;;;;;5091705;28;20062;-61
2021/12/10 08:47:15;;;;;;;14.75;8.73;;;2.20;99.90;;;;;;5091780;28;20085;-61
2021/12/10 08:49:41;;;;;;;11.68;7.47;;;2.20;99.90;;;;;;5091686;28;20024;-61
2021/12/10 08:52:08;;;;;;;15.75;8.13;;;2.10;99.90;;;;;;5092135;28;20364;-61
2021/12/10 08:54:36;;;;;;;12.15;6.82;;;2.10;99.90;;;;;;5092305;28;20023;-61
2021/12/10 08:57:04;;;;;;;9.52;6.70;;;2.10;99.90;;;;;;5092228;28;20533;-61
2021/12/10 08:59:30;;;;;;;11.32;7.50;;;2.10;99.90;;;;;;5092274;28;20356;-61
2021/12/10 09:01:59;;;;;;;10.25;7.00;;;2.20;99.90;;;;;;5088757;28;20365;-61
2021/12/10 09:04:27;;;;;;;14.85;8.23;;;2.20;99.90;;;;;;5091988;28;20020;-60
2021/12/10 09:07:02;;;;;;;14.40;7.78;;;2.20;99.90;;;;;;5091383;28;20020;-61
2021/12/10 09:09:30;;;;;;;16.70;10.13;;;2.20;99.90;;;;;;5092258;28;20022;-61
2021/12/10 09:11:58;;;;;;;14.23;9.02;;;2.10;99.90;;;;;;5091486;28;20035;-61
2021/12/10 09:14:28;;;;;;;10.20;6.82;;;2.10;99.90;;;;;;5092216;28;20555;-61
2021/12/10 09:16:56;;;;;;;12.88;7.43;;;2.00;99.90;;;;;;5091490;28;20024;-61
2021/12/10 09:19:22;;;;;;;11.18;7.93;;;2.00;99.90;;;;;;5091932;28;20036;-61
2021/12/10 09:21:49;;;;;;;13.90;7.88;;;2.00;99.90;;;;;;5091312;28;20036;-61
2021/12/10 09:24:18;;;;;;;16.08;8.15;;;2.00;99.90;;;;;;5091725;28;20133;-61
2021/12/10 09:26:46;;;;;;;14.65;8.25;;;1.90;99.90;;;;;;5091282;28;20111;-62
2021/12/10 09:29:15;;;;;;;12.50;8.27;;;2.00;99.90;;;;;;5092051;28;20022;-62
2021/12/10 09:31:42;;;;;;;15.18;8.90;;;2.00;99.90;;;;;;5091368;28;20464;-62
2021/12/10 09:34:10;;;;;;;14.40;8.75;;;2.00;99.90;;;;;;5094993;28;20012;-62
2021/12/10 09:36:36;;;;;;;13.02;8.63;;;2.00;99.90;;;;;;5095998;28;20027;-62
2021/12/10 09:39:05;;;;;;;15.30;9.27;;;2.10;99.90;;;;;;5095290;28;20077;-62
2021/12/10 09:41:30;;;;;;;15.77;9.55;;;2.00;99.90;;;;;;5095787;28;20122;-62
2021/12/10 09:43:56;;;;;;;15.38;9.07;;;2.10;99.90;;;;;;5095237;28;20517;-62
2021/12/10 09:46:22;;;;;;;16.67;10.23;;;2.10;99.90;;;;;;5095517;28;20063;-62
2021/12/10 09:48:49;;;;;;;19.50;10.98;;;2.10;99.90;;;;;;5094999;28;20149;-62
2021/12/10 09:51:18;;;;;;;16.48;9.65;;;2.10;99.90;;;;;;5095673;28;20103;-62
2021/12/10 09:53:47;;;;;;;12.25;9.18;;;2.10;99.90;;;;;;5095170;28;20022;-62
2021/12/10 09:56:15;;;;;;;17.73;10.07;;;2.20;99.90;;;;;;5095611;28;20024;-62
2021/12/10 09:58:41;;;;;;;12.80;9.60;;;2.20;99.90;;;;;;5095304;28;20024;-62
2021/12/10 10:01:20;;;;;;;13.07;9.15;;;2.30;99.90;;;;;;5095314;28;20462;-62
2021/12/10 10:03:49;;;;;;;13.30;10.25;;;2.50;99.90;;;;;;5094924;28;20050;-62
2021/12/10 10:06:15;;;;;;;13.93;10.02;;;2.60;99.90;;;;;;5095151;28;20392;-62
2021/12/10 10:08:42;;;;;;;13.65;10.55;;;2.70;99.90;;;;;;5091700;28;20093;-62
2021/12/10 10:11:18;;;;;;;14.60;11.20;;;2.90;99.90;;;;;;5095092;28;20129;-62
2021/12/10 10:13:46;;;;;;;14.85;11.60;;;2.90;99.90;;;;;;5094658;28;20360;-62
2021/12/10 10:16:12;;;;;;;18.65;13.07;;;3.10;99.90;;;;;;5093872;28;20360;-62
2021/12/10 10:18:41;;;;;;;17.92;13.55;;;3.20;99.90;;;;;;5095072;28;20107;-60
2021/12/10 10:21:11;;;;;;;21.50;15.23;;;3.30;99.90;;;;;;5094434;28;20028;-60
2021/12/10 10:23:38;;;;;;;23.33;14.93;;;3.40;99.90;;;;;;5095171;28;20016;-60
2021/12/10 10:26:08;;;;;;;23.10;15.60;;;3.40;99.90;;;;;;5094463;28;20328;-60
2021/12/10 10:28:35;;;;;;;23.67;16.45;;;3.50;99.20;;;;;;5094595;28;20353;-61
2021/12/10 10:31:08;;;;;;;27.63;17.77;;;3.30;98.50;;;;;;5094533;28;20028;-61
2021/12/10 10:33:36;;;;;;;29.80;19.63;;;3.10;98.40;;;;;;5094919;28;20055;-61
2021/12/10 10:36:08;;;;;;;29.25;19.23;;;3.00;99.30;;;;;;5094137;28;20031;-61
2021/12/10 10:38:34;;;;;;;;;;;2.80;99.30;;;;;;5095247;28;20016;-61
2021/12/10 10:41:09;;;;;;;34.33;19.85;;;2.60;99.50;;;;;;5093660;28;19950;-62
2021/12/10 10:43:37;;;;;;;32.35;18.90;;;2.50;99.90;;;;;;5094538;28;20027;-61
2021/12/10 10:46:03;;;;;;;29.60;19.52;;;2.40;99.90;;;;;;5092738;28;20044;-61
2021/12/10 10:48:29;;;;;;;32.08;20.83;;;2.30;99.90;;;;;;5094573;28;20027;-61
2021/12/10 10:51:06;;;;;;;33.38;21.45;;;2.10;99.90;;;;;;5093882;28;20020;-60
2021/12/10 10:53:37;;;;;;;33.10;20.20;;;2.10;99.90;;;;;;5094716;28;20047;-61
2021/12/10 10:56:10;;;;;;;30.67;20.08;;;2.00;99.90;;;;;;5093394;28;20490;-61
2021/12/10 10:58:40;;;;;;;29.52;19.88;;;2.00;99.90;;;;;;5094436;28;20118;-61
2021/12/10 11:01:14;;;;;;;31.15;20.25;;;2.00;99.90;;;;;;5093671;28;20027;-61
2021/12/10 11:03:46;;;;;;;34.50;21.08;;;1.90;99.90;;;;;;5094039;28;20028;-61
2021/12/10 11:06:16;;;;;;;31.77;21.02;;;1.90;99.90;;;;;;5082817;28;20465;-60
2021/12/10 11:08:52;;;;;;;32.10;20.55;;;1.90;99.90;;;;;;5074030;28;20028;-61
2021/12/10 11:11:29;;;;;;;32.88;21.27;;;1.90;99.90;;;;;;5073807;28;20101;-62
2021/12/10 11:14:15;;;;;;;31.13;20.33;;;1.90;99.90;;;;;;5072998;28;20492;-61
2021/12/10 11:16:45;;;;;;;30.23;20.30;;;2.00;99.90;;;;;;5073406;28;20020;-61
2021/12/10 11:19:21;;;;;;;35.50;21.43;;;2.00;99.90;;;;;;5073255;28;20023;-61
2021/12/10 11:22:02;;;;;;;39.75;23.45;;;2.00;99.90;;;;;;5073658;28;20063;-60
2021/12/10 11:24:43;;;;;;;38.80;23.42;;;2.00;99.90;;;;;;5073651;28;20108;-61
2021/12/10 11:27:20;;;;;;;38.42;24.63;;;2.00;99.90;;;;;;5072975;28;20028;-61
2021/12/10 11:30:03;;;;;;;42.17;26.20;;;1.90;99.90;;;;;;5073647;28;20023;-61
2021/12/10 11:32:35;;;;;;;42.03;25.67;;;1.80;99.90;;;;;;5073367;28;20036;-61
2021/12/10 11:35:26;;;;;;;42.25;26.23;;;1.80;99.90;;;;;;5072755;28;20020;-61
2021/12/10 11:38:25;;;;;;;41.80;25.08;;;1.70;99.90;;;;;;5072897;28;20024;-61
2021/12/10 11:41:11;;;;;;;45.72;26.70;;;1.60;99.90;;;;;;5072802;28;20028;-61
2021/12/10 11:48:51;;;;;;;43.20;24.65;;;1.40;99.90;;;;;;5073130;28;20352;-61
2021/12/10 11:51:21;;;;;;;37.75;23.98;;;1.40;99.90;;;;;;5072874;28;20031;-61
2021/12/10 11:53:52;;;;;;;40.28;24.45;;;1.40;99.90;;;;;;5072642;28;20027;-62
2021/12/10 11:56:26;;;;;;;41.35;25.15;;;1.40;99.90;;;;;;5073097;28;20019;-62
2021/12/10 11:59:21;;;;;;;45.72;26.17;;;1.40;99.90;;;;;;5072421;28;20026;-61
2021/12/10 12:01:51;;;;;;;42.83;25.45;;;1.30;99.90;;;;;;5071969;28;20040;-61
2021/12/10 12:04:46;;;;;;;48.22;27.08;;;1.30;99.90;;;;;;5072748;28;20021;-61
2021/12/10 12:07:40;;;;;;;48.30;27.88;;;1.30;99.90;;;;;;5074289;28;20111;-61
2021/12/10 12:10:40;;;;;;;47.00;26.77;;;1.20;99.90;;;;;;5071975;28;20117;-61
2021/12/10 12:15:49;;;;;;;44.53;25.75;;;1.10;99.90;;;;;;5072573;28;20031;-62
2021/12/10 12:18:22;;;;;;;45.42;26.52;;;1.10;99.90;;;;;;5071889;28;20020;-61
2021/12/10 12:20:52;;;;;;;46.08;26.95;;;1.00;99.90;;;;;;5072502;28;20020;-61
2021/12/10 12:26:19;;;;;;;45.83;26.67;;;1.10;99.90;;;;;;5071616;28;20035;-62
2021/12/10 12:28:55;;;;;;;46.45;26.58;;;1.10;99.90;;;;;;5072394;28;20029;-60
2021/12/10 12:31:24;;;;;;;43.00;25.52;;;1.10;99.90;;;;;;5072427;28;20020;-61
2021/12/10 12:34:13;;;;;;;42.35;25.48;;;1.20;99.90;;;;;;5072246;28;20127;-61
2021/12/10 12:36:50;;;;;;;38.75;24.27;;;1.20;99.90;;;;;;5072244;28;20082;-61
2021/12/10 12:39:43;;;;;;;41.17;25.30;;;1.30;99.90;;;;;;5071691;28;20027;-60
2021/12/10 12:42:34;;;;;;;45.42;26.95;;;1.40;99.90;;;;;;5071644;28;20119;-61
2021/12/10 12:45:00;;;;;;;44.00;26.35;;;1.50;99.90;;;;;;5071226;28;20016;-61
2021/12/10 12:47:32;;;;;;;43.55;24.95;;;1.50;99.90;;;;;;5071552;28;20380;-61
2021/12/10 12:50:04;;;;;;;40.65;26.20;;;1.60;99.90;;;;;;5071482;28;20030;-61
2021/12/10 12:52:44;;;;;;;42.25;26.20;;;1.60;99.90;;;;;;5072088;28;20020;-61
2021/12/10 12:55:16;;;;;;;44.28;25.75;;;1.60;99.90;;;;;;5071538;28;20029;-61
2021/12/10 12:58:04;;;;;;;41.95;25.40;;;1.50;99.90;;;;;;5072321;28;20036;-61
2021/12/10 13:00:57;;;;;;;44.22;26.77;;;1.50;99.90;;;;;;5072324;28;20025;-61
2021/12/10 13:03:32;;;;;;;45.33;27.58;;;1.40;99.90;;;;;;5068933;28;20047;-61
2021/12/10 13:06:13;;;;;;;44.72;27.40;;;1.40;99.90;;;;;;5082384;28;20016;-61
2021/12/10 13:08:42;;;;;;;;;;;1.30;99.90;;;;;;5097307;28;20173;-61
2021/12/10 13:11:23;;;;;;;41.70;25.73;;;1.30;99.90;;;;;;5098410;28;19939;-61
2021/12/10 13:14:04;;;;;;;45.70;26.52;;;1.30;99.90;;;;;;5098731;28;20027;-61
2021/12/10 13:16:40;;;;;;;45.55;27.05;;;1.30;99.90;;;;;;5098838;28;20077;-61
2021/12/10 13:19:08;;;;;;;41.78;25.63;;;1.20;99.90;;;;;;5098311;28;20070;-61
2021/12/10 13:21:34;;;;;;;45.20;26.95;;;1.20;99.90;;;;;;5098773;28;20062;-61
2021/12/10 13:24:00;;;;;;;47.72;27.75;;;1.10;99.90;;;;;;5098037;28;20070;-61